Time;durP1;ratioP1;P1;durP2;ratioP2;P2;SDS_P1;SDS_P2;PMS_P1;PMS_P2;Temp;Humidity;BMP_temperature;BMP_pressure;BME280_temperature;BME280_humidity;BME280_pressure;Samples;Min_cycle;Max_cycle;Signal;HPM_P1;HPM_P2
2022/07/07 00:02:02;;;;;;;38.10;16.53;;;;;;;36.65;46.81;101264.44;6244585;23;20465;-73
2022/07/07 00:04:28;;;;;;;40.37;19.30;;;;;;;36.55;46.49;101263.50;6244434;23;20422;-77
2022/07/07 00:06:54;;;;;;;32.03;18.13;;;;;;;36.60;47.03;101265.34;6244540;23;20374;-77
2022/07/07 00:09:20;;;;;;;47.53;19.60;;;;;;;36.58;46.91;101260.19;6244397;23;20449;-76
2022/07/07 00:11:47;;;;;;;26.30;17.03;;;;;;;36.67;46.28;101260.38;6244460;23;20831;-76
2022/07/07 00:14:13;;;;;;;39.97;18.50;;;;;;;36.54;46.65;101252.97;6246427;22;20879;-76
2022/07/07 00:16:39;;;;;;;43.57;20.40;;;;;;;36.60;46.83;101254.53;6244437;23;20722;-76
2022/07/07 00:19:06;;;;;;;36.03;20.20;;;;;;;36.68;46.40;101262.00;6245898;23;20413;-76
2022/07/07 00:21:32;;;;;;;31.37;18.80;;;;;;;36.74;46.67;101262.75;6244393;23;20423;-76
2022/07/07 00:23:58;;;;;;;42.43;21.50;;;;;;;36.76;46.44;101260.53;6244325;23;20422;-74
2022/07/07 00:26:25;;;;;;;47.80;23.80;;;;;;;36.73;46.53;101264.66;6244209;23;20435;-74
2022/07/07 00:28:51;;;;;;;48.37;23.23;;;;;;;36.70;46.89;101272.50;6244397;23;20398;-73
2022/07/07 00:31:17;;;;;;;41.93;20.00;;;;;;;36.66;46.51;101271.50;6246301;22;20730;-74
2022/07/07 00:33:44;;;;;;;46.07;21.07;;;;;;;36.59;46.61;101278.03;6244235;23;20381;-74
2022/07/07 00:36:10;;;;;;;46.93;25.57;;;;;;;36.58;46.55;101278.31;6244305;23;20459;-74
2022/07/07 00:38:36;;;;;;;45.93;23.23;;;;;;;36.68;46.52;101274.72;6244016;23;20371;-74
2022/07/07 00:41:02;;;;;;;34.40;19.80;;;;;;;36.74;46.67;101276.25;6245767;22;20350;-74
2022/07/07 00:43:39;;;;;;;32.20;19.27;;;;;;;36.63;46.64;101266.66;6243815;23;20439;-74
2022/07/07 00:46:06;;;;;;;36.30;19.50;;;;;;;36.56;46.27;101264.28;6244209;23;20374;-74
2022/07/07 00:48:35;;;;;;;38.40;19.07;;;;;;;36.57;46.36;101257.78;6245832;22;20378;-74
2022/07/07 00:51:04;;;;;;;39.60;20.40;;;;;;;36.53;46.06;101254.06;6273725;22;20422;-75
2022/07/07 00:53:30;;;;;;;31.03;19.30;;;;;;;36.55;45.99;101255.38;6249101;22;20398;-75
2022/07/07 00:55:57;;;;;;;29.33;18.33;;;;;;;36.53;46.71;101254.88;6249009;22;20482;-73
2022/07/07 00:58:23;;;;;;;44.37;18.70;;;;;;;36.55;46.27;101262.69;6249171;22;20388;-73
2022/07/07 01:00:49;;;;;;;35.50;19.77;;;;;;;36.50;46.40;101246.53;6248760;22;20440;-73
2022/07/07 01:03:16;;;;;;;39.60;18.43;;;;;;;36.50;46.87;101247.31;6249090;22;20382;-73
2022/07/07 01:05:46;;;;;;;35.70;19.50;;;;;;;36.30;46.97;101247.50;6248928;22;20424;-73
2022/07/07 01:08:15;;;;;;;38.53;21.60;;;;;;;36.30;47.05;101250.22;6249018;22;20385;-76
2022/07/07 01:10:45;;;;;;;39.73;17.53;;;;;;;36.49;46.76;101245.72;6249095;22;20386;-75
2022/07/07 01:13:12;;;;;;;45.17;20.87;;;;;;;36.28;47.37;101245.09;6248760;22;20374;-74
2022/07/07 01:15:38;;;;;;;32.30;18.47;;;;;;;36.20;47.37;101236.81;6248861;22;20481;-76
2022/07/07 01:18:06;;;;;;;41.50;23.33;;;;;;;36.25;47.55;101242.16;6248810;22;20474;-75
2022/07/07 01:20:33;;;;;;;40.20;22.17;;;;;;;36.29;46.97;101238.63;6248931;22;20486;-74
2022/07/07 01:23:00;;;;;;;42.37;20.13;;;;;;;36.47;46.93;101230.91;6248653;22;20732;-74
2022/07/07 01:25:26;;;;;;;43.57;22.43;;;;;;;36.49;46.95;101221.41;6276202;22;20409;-73
2022/07/07 01:27:52;;;;;;;52.60;20.80;;;;;;;36.53;46.42;101221.66;6248907;22;20389;-73
2022/07/07 01:30:19;;;;;;;30.67;19.10;;;;;;;36.47;46.61;101220.09;6276248;22;20361;-73
2022/07/07 01:32:46;;;;;;;44.57;22.60;;;;;;;36.36;46.44;101215.84;6248687;22;20408;-75
2022/07/07 01:35:12;;;;;;;48.33;19.97;;;;;;;36.47;46.49;101223.59;6248901;22;20380;-75
2022/07/07 01:37:38;;;;;;;37.20;21.10;;;;;;;36.42;46.73;101215.53;6248604;22;20416;-76
2022/07/07 01:40:05;;;;;;;38.07;21.97;;;;;;;36.37;46.47;101217.47;6248747;22;20389;-73
2022/07/07 01:42:32;;;;;;;39.77;19.10;;;;;;;36.39;46.49;101215.25;6248570;22;20377;-73
2022/07/07 01:44:58;;;;;;;35.17;18.83;;;;;;;36.45;46.19;101228.47;6248506;22;20440;-73
2022/07/07 01:47:25;;;;;;;30.93;20.80;;;;;;;36.47;46.44;101237.09;6248552;22;20407;-75
2022/07/07 01:49:52;;;;;;;35.60;20.93;;;;;;;36.50;46.30;101233.00;6276133;22;20470;-75
2022/07/07 01:52:18;;;;;;;38.33;20.97;;;;;;;36.50;46.18;101233.00;6248313;22;20424;-74
2022/07/07 01:54:45;;;;;;;51.20;19.23;;;;;;;36.61;46.20;101231.81;6248517;22;20369;-74
2022/07/07 01:57:11;;;;;;;38.07;22.93;;;;;;;36.54;46.61;101232.16;6248582;22;20511;-73
2022/07/07 01:59:38;;;;;;;52.17;23.00;;;;;;;36.57;46.61;101223.47;6248151;22;20374;-74
2022/07/07 02:02:05;;;;;;;50.47;23.83;;;;;;;36.57;46.31;101219.94;6248455;22;20735;-73
2022/07/07 02:04:31;;;;;;;37.37;21.07;;;;;;;36.48;46.67;101219.78;6248407;22;20497;-74
2022/07/07 02:06:58;;;;;;;54.07;21.97;;;;;;;36.39;46.25;101215.25;6248482;22;20700;-73
2022/07/07 02:09:24;;;;;;;36.57;18.50;;;;;;;36.14;46.83;101222.53;6248300;22;20779;-73
2022/07/07 02:11:50;;;;;;;38.63;17.73;;;;;;;36.21;46.87;101228.41;6248626;22;20407;-73
2022/07/07 02:14:16;;;;;;;33.33;22.00;;;;;;;36.02;47.25;101231.03;6248385;22;20374;-74
2022/07/07 02:16:42;;;;;;;38.80;17.40;;;;;;;36.09;47.38;101229.88;6248528;22;20429;-75
2022/07/07 02:19:09;;;;;;;33.40;18.83;;;;;;;36.11;46.92;101233.94;6248417;22;20378;-73
2022/07/07 02:21:35;;;;;;;33.73;17.40;;;;;;;36.15;46.87;101236.84;6275905;22;20353;-73
2022/07/07 02:24:03;;;;;;;37.53;19.80;;;;;;;36.16;47.06;101227.69;6248340;22;20417;-73
2022/07/07 02:26:32;;;;;;;34.20;20.40;;;;;;;36.12;47.05;101224.72;6248250;22;20381;-73
2022/07/07 02:28:59;;;;;;;34.23;18.10;;;;;;;36.21;47.50;101227.59;6248510;22;20420;-75
2022/07/07 02:31:25;;;;;;;33.37;19.90;;;;;;;36.12;47.51;101221.22;6248135;22;20803;-76
2022/07/07 02:33:51;;;;;;;49.27;22.83;;;;;;;36.07;47.25;101224.78;6248412;22;20822;-73
2022/07/07 02:36:19;;;;;;;48.33;21.83;;;;;;;35.88;47.70;101224.66;6248289;22;20377;-73
2022/07/07 02:38:46;;;;;;;38.93;19.93;;;;;;;35.88;47.46;101238.16;6248321;22;20381;-73
2022/07/07 02:41:12;;;;;;;35.47;19.63;;;;;;;36.01;46.92;101232.13;6248495;22;20859;-73
2022/07/07 02:43:38;;;;;;;31.63;18.97;;;;;;;36.19;46.92;101235.19;6247914;22;20378;-73
2022/07/07 02:46:05;;;;;;;40.13;23.40;;;;;;;35.93;47.20;101238.13;6248491;22;20473;-73
2022/07/07 02:48:31;;;;;;;37.10;20.67;;;;;;;36.01;47.32;101245.63;6248215;22;20412;-75
2022/07/07 02:50:58;;;;;;;38.07;19.40;;;;;;;35.95;47.45;101246.75;6243014;23;20956;-76
2022/07/07 02:53:24;;;;;;;36.03;16.90;;;;;;;35.84;47.89;101245.19;6243357;23;20382;-74
2022/07/07 02:55:50;;;;;;;37.83;18.90;;;;;;;35.89;48.04;101244.34;6242956;23;20470;-74
2022/07/07 02:58:19;;;;;;;31.63;17.50;;;;;;;36.19;46.95;101248.69;6245364;22;20691;-73
2022/07/07 03:00:47;;;;;;;38.97;21.57;;;;;;;36.33;47.17;101241.53;6243288;23;20835;-73
2022/07/07 03:03:14;;;;;;;59.43;19.67;;;;;;;36.29;46.64;101240.50;6243530;23;20378;-73
2022/07/07 03:05:40;;;;;;;32.43;22.43;;;;;;;36.11;47.35;101249.31;6244974;23;20803;-75
2022/07/07 03:08:07;;;;;;;44.10;21.40;;;;;;;36.13;47.08;101245.25;6244994;23;20850;-76
2022/07/07 03:10:33;;;;;;;59.13;23.50;;;;;;;36.27;46.65;101246.19;6247101;22;20442;-73
2022/07/07 03:13:00;;;;;;;52.10;23.50;;;;;;;36.15;47.37;101247.66;6244942;23;20489;-73
2022/07/07 03:15:26;;;;;;;38.77;20.50;;;;;;;35.81;48.09;101243.06;6245108;23;20404;-73
2022/07/07 03:17:52;;;;;;;41.43;19.90;;;;;;;35.99;47.16;101253.19;6245020;23;20390;-73
2022/07/07 03:20:19;;;;;;;42.17;20.03;;;;;;;35.99;47.75;101247.81;6244896;23;20409;-73
2022/07/07 03:22:46;;;;;;;41.77;18.93;;;;;;;36.03;47.42;101251.56;6245046;23;20461;-73
2022/07/07 03:25:12;;;;;;;33.10;18.77;;;;;;;36.04;47.50;101245.06;6246628;22;20457;-73
2022/07/07 03:27:39;;;;;;;43.13;18.90;;;;;;;35.96;47.42;101251.06;6244886;23;20386;-75
2022/07/07 03:30:07;;;;;;;37.20;22.00;;;;;;;35.93;47.49;101258.94;6246745;22;20402;-76
2022/07/07 03:32:33;;;;;;;69.13;24.37;;;;;;;35.88;47.58;101262.44;6244774;23;20439;-73
2022/07/07 03:35:00;;;;;;;52.57;27.60;;;;;;;35.50;48.19;101275.66;6244644;23;20882;-75
2022/07/07 03:37:26;;;;;;;39.80;21.53;;;;;;;35.79;47.79;101270.34;6244727;23;20713;-76
2022/07/07 03:39:53;;;;;;;50.67;24.00;;;;;;;35.97;47.41;101274.28;6244913;23;20397;-73
2022/07/07 03:42:19;;;;;;;67.07;24.10;;;;;;;36.11;46.90;101268.22;6244725;23;20393;-76
2022/07/07 03:44:45;;;;;;;62.03;26.17;;;;;;;36.17;46.75;101269.78;6244514;23;20426;-75
2022/07/07 03:47:12;;;;;;;37.37;19.67;;;;;;;36.01;46.16;101272.63;6246796;22;20351;-75
2022/07/07 03:49:39;;;;;;;35.43;20.10;;;;;;;36.10;46.56;101278.22;6244548;22;20774;-75
2022/07/07 03:52:05;;;;;;;29.07;15.90;;;;;;;36.10;46.76;101277.44;6244590;23;20401;-75
2022/07/07 03:54:32;;;;;;;43.37;17.63;;;;;;;35.90;46.94;101276.44;6244621;23;20425;-75
2022/07/07 03:56:58;;;;;;;39.70;18.07;;;;;;;35.75;47.32;101281.97;6244551;23;20381;-75
2022/07/07 03:59:24;;;;;;;37.90;20.77;;;;;;;35.71;47.68;101283.63;6244492;23;20381;-75
2022/07/07 04:01:50;;;;;;;27.73;17.37;;;;;;;35.98;46.91;101286.69;6244500;23;20428;-73
2022/07/07 04:04:16;;;;;;;33.27;17.00;;;;;;;35.46;48.19;101285.38;6244520;23;20418;-73
2022/07/07 04:06:43;;;;;;;33.10;20.07;;;;;;;35.78;47.64;101284.91;6246905;22;20428;-73
2022/07/07 04:09:10;;;;;;;38.03;19.40;;;;;;;35.93;47.24;101284.03;6246528;22;20346;-75
2022/07/07 04:11:36;;;;;;;43.13;19.37;;;;;;;36.10;46.98;101290.94;6244459;23;20383;-75
2022/07/07 04:14:03;;;;;;;36.90;19.67;;;;;;;36.13;47.09;101306.56;6244376;23;20389;-73
2022/07/07 04:16:30;;;;;;;33.37;19.77;;;;;;;36.14;47.03;101308.97;6244429;23;20386;-73
2022/07/07 04:18:57;;;;;;;38.43;17.60;;;;;;;35.97;47.14;101309.38;6244504;23;20374;-73
2022/07/07 04:21:23;;;;;;;40.70;21.23;;;;;;;36.02;47.48;101317.41;6244228;23;20377;-76
2022/07/07 04:23:50;;;;;;;35.87;19.40;;;;;;;36.06;47.29;101315.78;6244255;23;20421;-76
2022/07/07 04:26:16;;;;;;;45.67;18.10;;;;;;;36.15;47.14;101310.56;6244280;23;20391;-73
2022/07/07 04:28:42;;;;;;;29.80;16.60;;;;;;;36.16;46.99;101319.50;6244398;23;20436;-76
2022/07/07 04:31:08;;;;;;;39.73;19.93;;;;;;;36.16;46.67;101322.19;6244386;23;20401;-75
2022/07/07 04:33:35;;;;;;;32.77;17.67;;;;;;;36.22;47.22;101326.47;6244126;23;20375;-73
2022/07/07 04:36:01;;;;;;;44.67;21.17;;;;;;;36.09;46.87;101327.91;6246367;22;20363;-73
2022/07/07 04:38:27;;;;;;;35.93;21.80;;;;;;;36.17;47.53;101335.41;6244130;23;20378;-73
2022/07/07 04:40:53;;;;;;;43.07;17.77;;;;;;;36.10;47.20;101334.13;6244127;23;20382;-73
2022/07/07 04:43:19;;;;;;;35.77;18.37;;;;;;;36.08;47.12;101325.50;6244052;23;20377;-73
2022/07/07 04:45:45;;;;;;;39.93;23.90;;;;;;;36.08;47.41;101329.00;6244022;23;20441;-73
2022/07/07 04:48:11;;;;;;;50.77;24.60;;;;;;;35.75;48.02;101335.97;6244172;22;20424;-74
2022/07/07 04:50:38;;;;;;;67.00;24.80;;;;;;;35.86;47.84;101328.59;6244012;23;20438;-73
2022/07/07 04:53:04;;;;;;;43.83;22.40;;;;;;;36.04;47.62;101325.25;6244135;23;20417;-73
2022/07/07 04:55:30;;;;;;;55.57;25.60;;;;;;;36.01;47.46;101318.50;6244035;23;20401;-74
2022/07/07 04:57:56;;;;;;;62.67;26.67;;;;;;;36.11;47.21;101322.25;6243850;23;20405;-75
2022/07/07 05:00:22;;;;;;;51.37;29.63;;;;;;;36.12;46.89;101331.94;6244102;23;20471;-73
2022/07/07 05:02:48;;;;;;;66.73;25.47;;;;;;;35.69;47.79;101329.78;6243837;23;20414;-73
2022/07/07 05:05:15;;;;;;;50.80;25.60;;;;;;;35.35;48.36;101334.25;6243890;23;20426;-75
2022/07/07 05:07:41;;;;;;;41.00;22.53;;;;;;;35.32;48.61;101341.00;6243851;23;20924;-77
2022/07/07 05:10:08;;;;;;;42.27;22.50;;;;;;;35.59;48.26;101339.81;6243777;23;20426;-76
2022/07/07 05:12:34;;;;;;;38.90;19.77;;;;;;;35.55;48.04;101346.88;6243957;23;20424;-76
2022/07/07 05:15:00;;;;;;;42.00;22.07;;;;;;;35.62;47.99;101339.28;6243964;23;20418;-73
2022/07/07 05:17:26;;;;;;;45.70;23.47;;;;;;;35.53;48.24;101347.13;6245596;22;20469;-75
2022/07/07 05:19:52;;;;;;;50.03;21.83;;;;;;;35.12;49.29;101346.50;6243761;23;20408;-75
2022/07/07 05:22:18;;;;;;;39.10;23.00;;;;;;;35.05;49.52;101346.78;6243646;23;20382;-76
2022/07/07 05:24:45;;;;;;;73.47;23.67;;;;;;;35.30;48.63;101350.44;6243602;23;20639;-72
2022/07/07 05:27:11;;;;;;;40.87;22.80;;;;;;;35.25;48.84;101370.16;6245450;22;20354;-75
2022/07/07 05:29:37;;;;;;;31.00;20.57;;;;;;;35.34;48.84;101360.41;6243771;23;20401;-74
2022/07/07 05:32:04;;;;;;;36.33;21.50;;;;;;;35.55;48.53;101368.47;6243596;23;20382;-74
2022/07/07 05:34:30;;;;;;;50.23;23.73;;;;;;;35.62;48.06;101366.25;6243743;23;20382;-74
2022/07/07 05:36:56;;;;;;;46.80;22.57;;;;;;;35.44;48.39;101359.59;6243764;23;20465;-72
2022/07/07 05:39:24;;;;;;;48.57;23.47;;;;;;;35.43;48.56;101361.50;6243679;23;20382;-73
2022/07/07 05:41:50;;;;;;;40.90;24.10;;;;;;;35.63;48.04;101357.88;6243132;23;20382;-73
2022/07/07 05:44:16;;;;;;;62.60;27.57;;;;;;;35.75;47.95;101361.06;6245266;22;20532;-73
2022/07/07 05:46:42;;;;;;;53.60;27.20;;;;;;;35.46;48.51;101358.22;6243101;23;20379;-72
2022/07/07 05:49:09;;;;;;;60.77;25.70;;;;;;;35.43;48.60;101358.00;6242682;22;20782;-77
2022/07/07 05:51:35;;;;;;;44.23;23.53;;;;;;;35.38;48.69;101366.06;6243192;23;20375;-73
2022/07/07 05:54:01;;;;;;;46.07;23.50;;;;;;;35.54;48.70;101364.94;6243097;23;20386;-73
2022/07/07 05:56:27;;;;;;;54.57;26.70;;;;;;;35.75;48.53;101368.34;6243503;23;20850;-74
2022/07/07 05:58:53;;;;;;;50.13;24.60;;;;;;;35.80;47.48;101373.72;6243788;23;20389;-72
2022/07/07 06:01:20;;;;;;;49.47;22.07;;;;;;;35.84;47.66;101373.94;6245602;23;20355;-72
2022/07/07 06:03:46;;;;;;;46.07;20.50;;;;;;;35.57;48.35;101377.88;6218299;23;20480;-73
2022/07/07 06:06:12;;;;;;;49.83;20.77;;;;;;;35.47;48.52;101386.81;6245222;23;20390;-72
2022/07/07 06:08:39;;;;;;;43.80;22.67;;;;;;;35.53;48.40;101376.81;6243240;23;20396;-73
2022/07/07 06:11:05;;;;;;;43.13;21.20;;;;;;;35.63;48.55;101374.06;6243129;23;20440;-72
2022/07/07 06:13:31;;;;;;;43.10;23.07;;;;;;;35.35;49.07;101380.09;6245169;22;20386;-73
2022/07/07 06:15:57;;;;;;;40.13;21.00;;;;;;;35.38;48.69;101377.66;6244920;22;20394;-73
2022/07/07 06:18:23;;;;;;;35.80;20.40;;;;;;;35.22;49.21;101373.41;6244939;23;20350;-72
2022/07/07 06:20:49;;;;;;;38.97;19.77;;;;;;;35.45;48.53;101374.69;6243154;23;20924;-75
2022/07/07 06:23:16;;;;;;;34.33;19.87;;;;;;;35.54;48.35;101375.72;6243124;23;20406;-73
2022/07/07 06:25:43;;;;;;;51.40;25.77;;;;;;;35.65;48.54;101382.69;6244950;22;20752;-73
2022/07/07 06:28:09;;;;;;;35.43;20.77;;;;;;;35.72;48.02;101383.19;6242968;23;20403;-73
2022/07/07 06:30:35;;;;;;;44.17;21.47;;;;;;;35.57;48.23;101379.78;6242881;23;20378;-73
2022/07/07 06:33:01;;;;;;;30.50;20.67;;;;;;;35.69;48.25;101372.97;6243046;23;20385;-73
2022/07/07 11:49:20;;;;;;;24.30;16.67;;;;;;;37.18;44.18;101407.75;6182667;22;21085;-74
2022/07/07 11:51:46;;;;;;;25.43;17.00;;;;;;;37.24;43.97;101407.41;6276553;22;20394;-74
2022/07/07 11:54:13;;;;;;;23.47;18.20;;;;;;;37.16;44.62;101402.63;6249749;22;20373;-72
2022/07/07 11:56:40;;;;;;;27.90;17.93;;;;;;;37.27;43.97;101416.84;6249758;22;20489;-73
2022/07/07 11:59:09;;;;;;;33.97;20.17;;;;;;;37.10;44.08;101407.28;6249670;22;20386;-73
2022/07/07 12:01:38;;;;;;;37.87;19.10;;;;;;;37.21;44.72;101412.59;6276782;22;20355;-72
2022/07/07 12:04:20;;;;;;;31.03;17.07;;;;;;;37.24;44.28;101414.72;6277258;22;20396;-72
2022/07/07 12:06:47;;;;;;;28.37;17.23;;;;;;;37.36;43.92;101409.72;6249151;22;20390;-72
2022/07/07 12:09:13;;;;;;;33.70;16.17;;;;;;;37.20;43.99;101402.84;6276946;22;20379;-72
2022/07/07 12:11:41;;;;;;;38.33;21.30;;;;;;;37.09;43.92;101399.47;6248733;22;20922;-70
2022/07/07 12:14:09;;;;;;;38.47;18.60;;;;;;;37.17;43.95;101392.63;6249193;22;20435;-72
2022/07/07 12:16:47;;;;;;;30.77;19.60;;;;;;;37.35;44.23;101381.88;6276590;22;20443;-72
2022/07/07 12:19:14;;;;;;;25.53;18.80;;;;;;;37.25;43.91;101381.94;6249464;22;20515;-72
2022/07/07 12:21:45;;;;;;;30.73;17.50;;;;;;;37.40;43.72;101389.13;6249637;22;20731;-72
2022/07/07 12:24:13;;;;;;;36.90;18.90;;;;;;;37.33;44.15;101385.94;6249594;22;20920;-71
2022/07/07 12:26:47;;;;;;;27.80;16.07;;;;;;;37.42;43.59;101380.72;6249580;22;20381;-73
2022/07/07 12:29:13;;;;;;;25.70;15.23;;;;;;;37.46;43.37;101382.56;6249297;22;20401;-72
2022/07/07 12:31:39;;;;;;;25.77;15.03;;;;;;;37.27;43.37;101378.97;6249114;22;20384;-72
2022/07/07 12:34:18;;;;;;;25.40;17.10;;;;;;;37.33;43.86;101367.81;6249258;22;20405;-72
2022/07/07 12:36:45;;;;;;;30.60;17.20;;;;;;;37.26;44.34;101363.81;6249018;22;20416;-71
2022/07/07 12:39:13;;;;;;;31.47;20.37;;;;;;;37.20;44.00;101373.91;6249537;22;20386;-72
2022/07/07 12:41:40;;;;;;;25.00;16.30;;;;;;;37.45;43.52;101361.19;6277388;22;20354;-72
2022/07/07 12:44:30;;;;;;;41.90;15.60;;;;;;;37.31;44.02;101353.75;6249210;22;20817;-71
2022/07/07 12:47:01;;;;;;;25.37;16.60;;;;;;;37.29;43.90;101355.94;6249261;22;20381;-74
2022/07/07 12:49:28;;;;;;;31.77;15.60;;;;;;;37.29;44.07;101353.22;6243490;22;20450;-72
2022/07/07 12:51:55;;;;;;;27.77;18.20;;;;;;;37.22;44.08;101347.38;6244383;23;20485;-72
2022/07/07 12:54:27;;;;;;;21.90;14.87;;;;;;;37.14;44.32;101348.03;6244388;23;20383;-71
2022/07/07 12:56:57;;;;;;;20.70;15.33;;;;;;;37.17;43.94;101346.63;6246459;22;20359;-72
2022/07/07 12:59:23;;;;;;;27.27;14.53;;;;;;;37.06;44.10;101341.34;6244381;23;20497;-72
2022/07/07 13:01:54;;;;;;;40.93;17.70;;;;;;;37.25;44.18;101343.28;6244157;23;20405;-72
2022/07/07 13:04:24;;;;;;;29.83;18.67;;;;;;;37.29;44.34;101338.91;6246136;22;20901;-71
2022/07/07 13:06:51;;;;;;;26.90;16.13;;;;;;;37.18;44.11;101332.00;6245158;22;20812;-73
2022/07/07 13:09:19;;;;;;;32.97;16.73;;;;;;;37.31;44.04;101323.97;6242501;23;20842;-73
2022/07/07 13:11:49;;;;;;;39.73;19.13;;;;;;;37.38;43.79;101320.94;6244926;22;20358;-72
2022/07/07 13:14:16;;;;;;;31.70;16.90;;;;;;;37.40;43.60;101324.19;6243158;23;20453;-72
2022/07/07 13:16:42;;;;;;;35.63;16.47;;;;;;;37.62;43.43;101321.69;6243079;23;20465;-73
2022/07/07 13:19:08;;;;;;;21.43;15.33;;;;;;;37.50;43.61;101317.81;6242973;23;20774;-73
2022/07/07 13:21:35;;;;;;;27.33;13.53;;;;;;;37.34;43.62;101306.41;6245081;22;20686;-73
2022/07/07 13:24:01;;;;;;;31.20;16.10;;;;;;;37.45;43.69;101299.75;6243924;23;20398;-72
2022/07/07 13:26:27;;;;;;;23.17;15.90;;;;;;;37.57;43.25;101285.78;6244021;23;20387;-72
2022/07/07 13:28:53;;;;;;;28.00;15.63;;;;;;;37.54;43.47;101289.06;6244074;23;20402;-73
2022/07/07 13:31:19;;;;;;;42.93;19.43;;;;;;;37.35;44.09;101278.25;6243839;23;20734;-73
2022/07/07 13:33:46;;;;;;;37.77;16.70;;;;;;;37.08;44.32;101270.75;6244029;23;20459;-73
2022/07/07 13:36:12;;;;;;;57.10;19.03;;;;;;;37.13;44.08;101265.25;6246286;23;20439;-72
2022/07/07 13:38:38;;;;;;;44.67;16.80;;;;;;;36.98;43.96;101266.25;6243920;23;20382;-72
2022/07/07 13:41:05;;;;;;;39.97;16.20;;;;;;;37.20;43.86;101259.47;6243867;23;20408;-72
2022/07/07 13:43:31;;;;;;;35.87;18.00;;;;;;;37.33;43.70;101266.88;6243793;23;20383;-72
2022/07/07 13:45:58;;;;;;;35.13;15.53;;;;;;;37.36;43.44;101258.19;6243737;23;20987;-72
2022/07/07 13:48:24;;;;;;;26.40;16.67;;;;;;;37.51;43.68;101263.41;6243347;22;20429;-74
2022/07/07 13:50:53;;;;;;;28.47;16.90;;;;;;;37.53;43.79;101261.19;6243687;23;20465;-73
2022/07/07 13:53:20;;;;;;;24.47;15.30;;;;;;;37.51;43.66;101260.69;6243770;23;20406;-73
2022/07/07 13:55:46;;;;;;;32.60;17.10;;;;;;;37.35;43.84;101243.06;6245779;22;20351;-73
2022/07/07 13:58:13;;;;;;;24.70;15.60;;;;;;;37.35;43.34;101246.56;6245772;22;20355;-73
2022/07/07 14:00:39;;;;;;;24.33;15.40;;;;;;;37.28;43.58;101245.31;6243618;23;20445;-73
2022/07/07 14:03:06;;;;;;;29.47;15.63;;;;;;;37.41;43.54;101247.31;6243707;23;20410;-73
2022/07/07 14:05:32;;;;;;;28.00;15.00;;;;;;;37.41;43.31;101238.41;6245506;23;20430;-73
2022/07/07 14:07:58;;;;;;;31.07;15.37;;;;;;;37.46;43.51;101225.59;6243615;23;20792;-73
2022/07/07 14:10:25;;;;;;;35.23;15.67;;;;;;;37.55;43.35;101212.97;6243708;23;20737;-73
2022/07/07 14:12:51;;;;;;;37.97;18.37;;;;;;;37.62;42.95;101213.41;6245442;22;20367;-73
2022/07/07 14:15:18;;;;;;;35.27;15.90;;;;;;;37.42;43.48;101211.03;6243708;23;20392;-73
2022/07/07 14:17:44;;;;;;;25.37;16.57;;;;;;;37.47;43.24;101215.56;6245750;22;20374;-73
2022/07/07 14:20:11;;;;;;;24.80;15.33;;;;;;;37.56;43.03;101213.78;6243375;23;20386;-73
2022/07/07 14:22:37;;;;;;;29.40;15.53;;;;;;;37.40;43.49;101207.81;6243710;23;20393;-73
2022/07/07 14:25:05;;;;;;;29.03;15.60;;;;;;;37.58;43.10;101212.41;6245514;22;20827;-73
2022/07/07 14:27:32;;;;;;;29.67;15.00;;;;;;;37.41;43.31;101204.00;6243614;23;20440;-72
2022/07/07 14:29:59;;;;;;;32.80;17.40;;;;;;;37.54;42.89;101205.16;6243590;23;20397;-72
2022/07/07 14:32:27;;;;;;;43.83;15.87;;;;;;;37.56;42.64;101202.97;6243509;23;20473;-72
2022/07/07 14:34:54;;;;;;;36.20;17.27;;;;;;;37.62;42.91;101188.25;6243655;23;20384;-72
2022/07/07 14:37:21;;;;;;;28.83;16.00;;;;;;;37.58;42.64;101177.22;6243450;23;20386;-72
2022/07/07 14:39:47;;;;;;;32.40;15.17;;;;;;;37.50;42.53;101167.06;6243839;23;20545;-72
2022/07/07 14:42:13;;;;;;;33.67;14.80;;;;;;;37.63;42.78;101176.34;6243576;23;20704;-72
2022/07/07 14:44:41;;;;;;;26.80;15.07;;;;;;;37.77;42.59;101190.72;6243345;23;20430;-72
2022/07/07 14:47:09;;;;;;;31.47;17.23;;;;;;;37.75;42.39;101176.69;6243533;23;20433;-72
2022/07/07 14:49:35;;;;;;;22.80;14.50;;;;;;;37.87;42.22;101178.91;6218386;23;20442;-73
2022/07/07 14:52:01;;;;;;;29.27;14.00;;;;;;;37.72;42.50;101184.56;6243810;23;20410;-72
2022/07/07 14:54:28;;;;;;;23.03;13.97;;;;;;;37.76;42.55;101180.19;6243514;23;20436;-72
2022/07/07 14:56:54;;;;;;;23.63;15.03;;;;;;;37.78;42.65;101173.34;6243464;23;20473;-72
2022/07/07 14:59:20;;;;;;;31.20;15.70;;;;;;;37.72;42.64;101165.63;6244037;23;20465;-72
2022/07/07 15:01:48;;;;;;;21.60;14.30;;;;;;;37.71;42.77;101169.44;6247358;22;20389;-72
2022/07/07 15:04:14;;;;;;;30.90;13.53;;;;;;;37.75;42.54;101154.19;6247233;22;20426;-72
2022/07/07 15:06:42;;;;;;;30.97;14.43;;;;;;;37.80;42.34;101160.34;6245394;23;20378;-72
2022/07/07 15:09:10;;;;;;;33.03;14.60;;;;;;;37.68;42.35;101168.09;6247274;23;20448;-71
2022/07/07 15:11:36;;;;;;;29.27;16.47;;;;;;;37.80;42.69;101165.75;6245426;23;20843;-72
2022/07/07 15:14:03;;;;;;;25.93;15.30;;;;;;;37.88;41.98;101167.81;6247062;22;20448;-72
2022/07/07 15:16:29;;;;;;;26.13;17.03;;;;;;;37.99;41.83;101176.53;6245359;23;20461;-72
2022/07/07 15:18:56;;;;;;;30.63;15.10;;;;;;;38.00;42.01;101172.75;6245383;23;20379;-71
2022/07/07 15:21:22;;;;;;;21.27;14.40;;;;;;;38.12;41.75;101175.75;6245143;23;20385;-72
2022/07/07 15:23:48;;;;;;;33.03;17.57;;;;;;;38.10;41.88;101177.94;6247305;22;20374;-72
2022/07/07 15:26:14;;;;;;;26.23;14.07;;;;;;;38.05;41.84;101160.97;6245032;23;20445;-72
2022/07/07 15:28:42;;;;;;;25.93;14.57;;;;;;;38.19;42.06;101167.22;6245178;23;20858;-72
2022/07/07 15:31:12;;;;;;;36.80;19.30;;;;;;;37.92;42.29;101178.81;6245230;23;20375;-72
2022/07/07 15:33:38;;;;;;;37.07;18.33;;;;;;;37.74;42.64;101168.81;6245380;23;20387;-73
2022/07/07 15:36:06;;;;;;;27.60;15.23;;;;;;;37.82;42.58;101154.66;6245142;23;20402;-74
2022/07/07 15:38:33;;;;;;;24.50;15.80;;;;;;;37.79;42.28;101142.47;6245109;23;20387;-72
2022/07/07 15:41:07;;;;;;;37.17;17.80;;;;;;;37.88;42.14;101148.84;6245121;23;20408;-72
2022/07/07 15:43:48;;;;;;;28.10;13.70;;;;;;;37.93;42.57;101147.94;6244990;23;20382;-72
2022/07/07 15:46:16;;;;;;;37.40;15.93;;;;;;;38.12;42.04;101145.97;6244904;23;20465;-73
2022/07/07 15:48:45;;;;;;;37.87;18.30;;;;;;;38.16;42.21;101144.22;6247186;22;20390;-73
2022/07/07 15:51:17;;;;;;;25.50;14.43;;;;;;;38.10;41.95;101140.00;6249992;22;20413;-72
2022/07/07 15:53:43;;;;;;;23.70;14.90;;;;;;;38.12;41.65;101126.16;6249956;22;20388;-74
2022/07/07 15:56:10;;;;;;;31.80;15.37;;;;;;;38.16;41.91;101122.56;6250083;22;20370;-74
2022/07/07 15:58:36;;;;;;;24.03;13.17;;;;;;;38.22;41.78;101122.47;6249890;22;20459;-72
2022/07/07 16:01:08;;;;;;;23.97;14.60;;;;;;;38.14;41.72;101115.84;6250273;22;20386;-72
2022/07/07 16:06:26;;;;;;;36.27;15.93;;;;;;;38.03;42.12;101112.53;6254433;22;20799;-72
2022/07/07 16:08:52;;;;;;;30.03;16.63;;;;;;;38.04;42.36;101110.63;6224498;22;20378;-72
2022/07/07 16:11:18;;;;;;;47.33;17.93;;;;;;;37.91;42.33;101101.41;6277123;22;20361;-72
2022/07/07 16:13:45;;;;;;;31.83;16.70;;;;;;;38.17;42.15;101115.22;6277502;22;20415;-72
2022/07/07 16:16:12;;;;;;;23.10;16.33;;;;;;;38.21;41.89;101116.25;6249655;22;20374;-74
2022/07/07 16:18:38;;;;;;;23.20;13.47;;;;;;;38.18;42.07;101117.66;6277427;22;20492;-74
2022/07/07 16:21:06;;;;;;;32.33;17.80;;;;;;;38.36;41.92;101117.84;6249517;22;20409;-73
2022/07/07 16:23:32;;;;;;;26.80;17.03;;;;;;;38.33;41.72;101118.47;6249679;22;20923;-74
2022/07/07 16:25:59;;;;;;;30.33;15.20;;;;;;;38.32;41.88;101114.16;6249706;22;20424;-72